Time;durP1;ratioP1;P1;durP2;ratioP2;P2;SDS_P1;SDS_P2;PMS_P1;PMS_P2;Temp;Humidity;BMP_temperature;BMP_pressure;BME280_temperature;BME280_humidity;BME280_pressure;Samples;Min_cycle;Max_cycle;Signal;HPM_P1;HPM_P2
2021/07/13 00:00:30;;;;;;;0.00;0.00;;;;;;;21.13;64.31;101079.09;5145527;27;20444;-88
2021/07/13 00:02:57;;;;;;;0.10;0.10;;;;;;;21.08;64.49;101075.81;5141440;27;20019;-88
2021/07/13 00:05:25;;;;;;;0.10;0.10;;;;;;;21.06;64.30;101075.03;5149812;27;20475;-90
2021/07/13 00:07:51;;;;;;;0.00;0.00;;;;;;;21.03;64.55;101072.53;5147764;27;20023;-89
2021/07/13 00:10:22;;;;;;;1.67;0.70;;;;;;;21.02;64.35;101074.34;5145178;27;20483;-88
2021/07/13 00:12:58;;;;;;;0.10;0.10;;;;;;;21.03;64.18;101080.63;5135207;27;20449;-89
2021/07/13 00:15:28;;;;;;;0.00;0.00;;;;;;;20.99;64.40;101088.88;5151194;27;20059;-88
2021/07/13 00:17:56;;;;;;;0.10;0.10;;;;;;;20.98;64.23;101097.91;5140906;27;20393;-89
2021/07/13 00:20:23;;;;;;;0.00;0.00;;;;;;;20.94;64.33;101088.28;5140496;27;20025;-89
2021/07/13 00:22:50;;;;;;;0.10;0.10;;;;;;;20.92;64.46;101092.91;5137666;27;20462;-89
2021/07/13 00:25:17;;;;;;;0.00;0.00;;;;;;;20.90;64.30;101094.81;5135698;27;20026;-89
2021/07/13 00:27:45;;;;;;;0.10;0.10;;;;;;;20.88;64.16;101080.56;5133612;27;20048;-89
2021/07/13 00:30:14;;;;;;;0.00;0.00;;;;;;;20.88;64.04;101082.41;5153033;27;20054;-89
2021/07/13 00:32:40;;;;;;;0.05;0.05;;;;;;;20.84;64.35;101089.81;5131451;27;20089;-89
2021/07/13 00:35:08;;;;;;;0.10;0.10;;;;;;;20.82;64.32;101087.22;5137966;27;20027;-88
2021/07/13 00:37:34;;;;;;;0.05;0.05;;;;;;;20.81;64.53;101088.16;5152467;27;20027;-87
2021/07/13 00:40:01;;;;;;;0.10;0.10;;;;;;;20.79;64.12;101092.75;5150486;27;20030;-88
2021/07/13 00:42:28;;;;;;;0.13;0.13;;;;;;;20.78;64.21;101084.78;5140576;27;20018;-88
2021/07/13 00:44:54;;;;;;;0.00;0.00;;;;;;;20.76;64.19;101084.88;5156515;27;20064;-88
2021/07/13 00:47:22;;;;;;;0.20;0.20;;;;;;;20.76;64.32;101081.28;5143784;27;20031;-87
2021/07/13 00:49:49;;;;;;;0.30;0.30;;;;;;;20.74;64.48;101083.22;5148733;27;20023;-88
2021/07/13 00:52:16;;;;;;;0.30;0.30;;;;;;;20.73;64.38;101081.50;5128627;27;20121;-88
2021/07/13 00:54:46;;;;;;;0.20;0.20;;;;;;;20.74;64.25;101089.47;5151520;27;20055;-88
2021/07/13 00:57:14;;;;;;;0.00;0.00;;;;;;;20.74;64.44;101099.38;5146633;27;20390;-88
2021/07/13 00:59:41;;;;;;;0.00;0.00;;;;;;;20.73;64.46;101097.66;5151319;27;20014;-87
2021/07/13 01:02:10;;;;;;;0.10;0.10;;;;;;;20.72;64.51;101098.59;5145454;27;20053;-88
2021/07/13 01:04:45;;;;;;;0.10;0.10;;;;;;;20.72;64.42;101104.84;5141884;27;20377;-88
2021/07/13 01:07:21;;;;;;;0.10;0.10;;;;;;;20.74;64.76;101102.09;5139353;27;20043;-88
2021/07/13 01:12:49;;;;;;;0.00;0.00;;;;;;;20.76;64.72;101119.88;5103908;27;20404;-87
2021/07/13 01:15:19;;;;;;;0.03;0.03;;;;;;;20.74;64.54;101110.16;5071514;28;20086;-87
2021/07/13 01:18:23;;;;;;;0.10;0.10;;;;;;;20.79;64.56;101097.28;5070929;28;20142;-87
2021/07/13 01:21:29;;;;;;;0.10;0.10;;;;;;;20.77;64.50;101089.31;5070260;28;20111;-87
2021/07/13 01:24:28;;;;;;;0.00;0.00;;;;;;;20.76;64.64;101089.38;5070245;28;20589;-88
2021/07/13 01:30:13;;;;;;;0.40;0.40;;;;;;;20.67;64.58;101088.94;5078605;28;20857;-88
2021/07/13 01:32:44;;;;;;;0.10;0.10;;;;;;;20.66;64.76;101080.94;5070326;28;20043;-87
2021/07/13 01:35:22;;;;;;;0.10;0.10;;;;;;;20.71;64.14;101081.59;5069848;28;20374;-87
2021/07/13 01:37:54;;;;;;;0.10;0.10;;;;;;;20.67;64.44;101078.19;5045230;28;20057;-87
2021/07/13 01:40:23;;;;;;;0.00;0.00;;;;;;;20.63;64.58;101081.13;5048311;28;20030;-87
2021/07/13 01:42:51;;;;;;;0.10;0.10;;;;;;;20.62;64.70;101080.28;5049924;28;20029;-87
2021/07/13 01:45:18;;;;;;;0.00;0.00;;;;;;;20.61;64.57;101083.91;5050575;28;20021;-86
2021/07/13 01:47:47;;;;;;;0.00;0.00;;;;;;;20.61;64.80;101083.03;5050279;28;20057;-87
2021/07/13 01:50:15;;;;;;;0.00;0.00;;;;;;;20.59;64.42;101085.81;5048937;28;20477;-87
2021/07/13 01:52:42;;;;;;;0.10;0.10;;;;;;;20.58;64.83;101086.78;5050111;28;20361;-87
2021/07/13 01:55:10;;;;;;;0.00;0.00;;;;;;;20.56;65.00;101090.50;5051067;28;20503;-88
2021/07/13 01:57:37;;;;;;;0.00;0.00;;;;;;;20.56;64.78;101090.50;5050728;28;20029;-87
2021/07/13 02:00:08;;;;;;;0.32;0.32;;;;;;;20.56;64.75;101086.03;5049943;28;20030;-87
2021/07/13 02:02:36;;;;;;;0.10;0.10;;;;;;;20.53;64.68;101087.03;5050134;28;20025;-87
2021/07/13 02:05:07;;;;;;;0.00;0.00;;;;;;;20.56;64.65;101096.78;5049901;28;20067;-87
2021/07/13 02:07:39;;;;;;;0.43;0.43;;;;;;;20.55;64.82;101092.34;5047067;28;20487;-87
2021/07/13 02:10:07;;;;;;;0.20;0.20;;;;;;;20.56;65.22;101086.03;5050281;28;20667;-87
2021/07/13 02:12:45;;;;;;;0.00;0.00;;;;;;;20.66;64.99;101094.41;5062438;28;20116;-88
2021/07/13 02:15:20;;;;;;;0.25;0.25;;;;;;;20.72;65.26;101093.22;5049032;28;20037;-88
2021/07/13 02:17:55;;;;;;;0.10;0.10;;;;;;;20.78;65.20;101090.16;5048956;28;20037;-87
2021/07/13 02:20:24;;;;;;;0.10;0.10;;;;;;;20.80;65.72;101082.88;5049871;28;20055;-88
2021/07/13 02:22:56;;;;;;;0.08;0.08;;;;;;;20.86;65.53;101090.59;5050161;28;20032;-86
2021/07/13 02:25:23;;;;;;;;;;;;;;;21.00;65.37;101085.22;5048077;28;20029;-88
2021/07/13 02:28:06;;;;;;;0.88;0.65;;;;;;;20.94;65.56;101080.22;5050181;28;19917;-87
2021/07/13 02:30:36;;;;;;;0.00;0.00;;;;;;;20.91;65.86;101076.81;5050219;28;20033;-87
2021/07/13 02:33:11;;;;;;;0.28;0.28;;;;;;;20.95;65.83;101084.63;5049846;28;20037;-87
2021/07/13 02:35:44;;;;;;;0.30;0.30;;;;;;;20.99;65.75;101078.09;5049748;28;20033;-87
2021/07/13 02:38:11;;;;;;;0.45;0.45;;;;;;;21.01;65.50;101076.19;5043739;28;20041;-87
2021/07/13 02:40:38;;;;;;;0.10;0.10;;;;;;;21.07;65.63;101066.00;5041290;28;20033;-87
2021/07/13 02:43:06;;;;;;;0.38;0.38;;;;;;;21.13;65.51;101062.94;5035071;28;20041;-87
2021/07/13 02:45:34;;;;;;;0.20;0.20;;;;;;;21.20;66.08;101068.78;5036347;28;20029;-87
2021/07/13 02:48:03;;;;;;;0.10;0.10;;;;;;;21.26;65.65;101066.63;5035694;28;20040;-87
2021/07/13 02:50:31;;;;;;;0.10;0.10;;;;;;;21.33;65.72;101062.59;5022297;28;20026;-87
2021/07/13 02:52:58;;;;;;;0.10;0.10;;;;;;;21.36;66.87;101060.63;5036865;28;20017;-87
2021/07/13 02:55:27;;;;;;;0.13;0.13;;;;;;;21.42;66.42;101062.94;5036385;28;20061;-87
2021/07/13 02:57:55;;;;;;;0.75;0.75;;;;;;;21.46;66.23;101054.59;5036418;28;20056;-86
2021/07/13 03:00:23;;;;;;;0.55;0.55;;;;;;;21.54;66.35;101046.00;5034790;28;20096;-87
2021/07/13 03:02:51;;;;;;;0.10;0.10;;;;;;;21.59;66.09;101049.31;5035418;28;20029;-87
2021/07/13 03:05:20;;;;;;;0.28;0.28;;;;;;;21.63;66.11;101050.88;5034973;28;20079;-87
2021/07/13 03:07:48;;;;;;;0.15;0.15;;;;;;;21.70;66.08;101055.88;5035567;28;20022;-88
2021/07/13 03:10:18;;;;;;;1.05;0.40;;;;;;;21.76;66.05;101058.19;5035451;28;20025;-88
2021/07/13 03:12:45;;;;;;;0.35;0.35;;;;;;;21.81;66.22;101062.31;5021424;28;20047;-88
2021/07/13 03:15:12;;;;;;;0.10;0.10;;;;;;;21.89;66.00;101069.91;5035290;28;20083;-88
2021/07/13 03:17:38;;;;;;;0.60;0.60;;;;;;;21.94;66.00;101065.09;5035014;28;20369;-88
2021/07/13 03:20:06;;;;;;;0.40;0.40;;;;;;;22.01;66.05;101065.56;5035143;28;20109;-88
2021/07/13 03:22:37;;;;;;;0.00;0.00;;;;;;;22.07;66.36;101065.16;5034903;28;20038;-87
2021/07/13 03:25:06;;;;;;;0.10;0.10;;;;;;;22.11;66.35;101066.69;5035599;28;20025;-87
2021/07/13 03:27:33;;;;;;;0.57;0.57;;;;;;;22.17;66.33;101069.94;5035058;28;20021;-88
2021/07/13 03:30:03;;;;;;;0.45;0.40;;;;;;;22.20;66.41;101070.59;5034501;28;20087;-87
2021/07/13 03:32:31;;;;;;;0.10;0.10;;;;;;;22.25;66.16;101068.47;5034463;28;20472;-87
2021/07/13 03:34:58;;;;;;;0.10;0.10;;;;;;;22.28;66.25;101065.59;5034514;28;20029;-87
2021/07/13 03:37:24;;;;;;;0.00;0.00;;;;;;;22.30;66.39;101060.94;5034819;28;20026;-87
2021/07/13 03:39:52;;;;;;;0.00;0.00;;;;;;;22.38;66.26;101067.69;5034822;28;20029;-86
2021/07/13 03:42:21;;;;;;;0.63;0.63;;;;;;;22.34;67.50;101067.00;5035147;28;20092;-87
2021/07/13 03:44:48;;;;;;;0.77;0.77;;;;;;;22.42;66.72;101064.69;5034477;28;20029;-87
2021/07/13 03:47:15;;;;;;;2.50;2.30;;;;;;;22.45;66.78;101074.41;5034825;28;20432;-87
2021/07/13 03:49:43;;;;;;;0.10;0.10;;;;;;;22.49;67.18;101062.44;5035036;28;20044;-87
2021/07/13 03:52:10;;;;;;;1.20;1.02;;;;;;;22.51;67.42;101062.34;5033366;28;20033;-87
2021/07/13 03:54:36;;;;;;;1.10;1.10;;;;;;;22.51;66.91;101063.22;5034099;28;20388;-87
2021/07/13 03:57:03;;;;;;;0.85;0.40;;;;;;;22.55;67.49;101062.03;5034420;28;20053;-89
2021/07/13 03:59:29;;;;;;;1.00;1.00;;;;;;;22.56;66.95;101066.47;5033763;28;20498;-88
2021/07/13 04:01:55;;;;;;;2.92;1.17;;;;;;;22.56;67.26;101054.81;5033929;28;20079;-89
2021/07/13 04:04:22;;;;;;;1.08;1.00;;;;;;;22.55;66.65;101062.03;5033787;28;20037;-89
2021/07/13 04:06:49;;;;;;;1.08;0.82;;;;;;;22.58;66.44;101067.25;5033929;28;20477;-88
2021/07/13 04:09:15;;;;;;;5.45;1.20;;;;;;;22.61;66.54;101066.16;5033368;28;20116;-88
2021/07/13 04:11:41;;;;;;;1.75;1.65;;;;;;;22.64;66.68;101067.78;5033675;28;20080;-88
2021/07/13 04:14:07;;;;;;;0.68;0.68;;;;;;;22.67;66.61;101072.97;5033233;28;20029;-88
2021/07/13 04:16:35;;;;;;;0.30;0.30;;;;;;;22.66;67.13;101073.97;5033314;28;20172;-87
2021/07/13 04:19:02;;;;;;;4.50;1.48;;;;;;;22.67;66.79;101078.38;5034107;28;20044;-87
2021/07/13 04:21:28;;;;;;;0.28;0.28;;;;;;;22.70;66.54;101072.78;5032680;28;20033;-87
2021/07/13 04:23:55;;;;;;;0.60;0.60;;;;;;;22.72;66.59;101081.66;5033902;28;20071;-87
2021/07/13 04:26:22;;;;;;;0.35;0.35;;;;;;;22.72;66.86;101087.91;5033912;28;20026;-87
2021/07/13 04:28:48;;;;;;;0.25;0.25;;;;;;;22.74;66.65;101091.38;5033397;28;20037;-87
2021/07/13 04:31:14;;;;;;;0.60;0.60;;;;;;;22.77;66.39;101095.72;5033979;28;20039;-87
2021/07/13 04:33:40;;;;;;;0.00;0.00;;;;;;;22.78;66.40;101098.28;5032047;28;20025;-87
2021/07/13 04:36:07;;;;;;;0.10;0.10;;;;;;;22.81;66.50;101099.91;5033278;28;20068;-87
2021/07/13 04:38:33;;;;;;;0.52;0.52;;;;;;;22.82;66.86;101101.66;5033113;28;20037;-87
2021/07/13 04:40:59;;;;;;;1.08;0.40;;;;;;;22.82;66.47;101104.38;5033028;28;20053;-87
2021/07/13 04:43:25;;;;;;;1.80;0.65;;;;;;;22.83;66.44;101091.72;5033249;28;20056;-88
2021/07/13 04:45:51;;;;;;;0.28;0.28;;;;;;;22.84;66.29;101096.16;5033253;28;20149;-87
2021/07/13 04:48:18;;;;;;;0.20;0.20;;;;;;;22.87;66.32;101102.22;5033022;28;20021;-86
2021/07/13 04:50:44;;;;;;;5.18;1.05;;;;;;;22.87;66.33;101095.94;5033411;28;20389;-87
2021/07/13 04:53:10;;;;;;;0.30;0.30;;;;;;;22.88;66.32;101098.53;5033157;28;20112;-87
2021/07/13 04:55:36;;;;;;;0.30;0.30;;;;;;;22.91;66.40;101095.63;5033338;28;20116;-87
2021/07/13 04:58:03;;;;;;;0.65;0.65;;;;;;;22.85;66.84;101098.72;5033392;28;20082;-87
2021/07/13 05:00:29;;;;;;;2.08;1.98;;;;;;;22.88;66.78;101097.66;5032720;28;20022;-88
2021/07/13 05:02:55;;;;;;;0.28;0.28;;;;;;;22.91;66.62;101098.31;5032796;28;20039;-90
2021/07/13 05:05:21;;;;;;;0.05;0.05;;;;;;;22.92;66.92;101101.91;5032656;28;20109;-87
2021/07/13 05:07:49;;;;;;;0.68;0.68;;;;;;;22.99;66.76;101099.63;5033074;28;20061;-87
2021/07/13 05:10:17;;;;;;;0.68;0.68;;;;;;;22.97;66.96;101101.56;5032528;28;20033;-87
2021/07/13 05:12:44;;;;;;;0.88;0.88;;;;;;;23.05;66.26;101107.31;5020231;28;20022;-88
2021/07/13 05:15:13;;;;;;;1.63;1.55;;;;;;;23.06;66.31;101106.34;5032967;28;20488;-87
2021/07/13 05:17:39;;;;;;;0.17;0.17;;;;;;;22.94;66.76;101103.53;5032451;28;20119;-88
2021/07/13 05:20:08;;;;;;;1.65;0.98;;;;;;;23.02;66.43;101118.34;5032646;28;20079;-88
2021/07/13 05:22:34;;;;;;;0.55;0.40;;;;;;;23.00;66.51;101120.28;5032539;28;20021;-89
2021/07/13 05:25:02;;;;;;;5.40;1.23;;;;;;;22.92;66.78;101113.56;5032316;28;20025;-88
2021/07/13 05:27:35;;;;;;;1.55;1.40;;;;;;;23.03;66.22;101115.53;5031713;28;20034;-87
2021/07/13 05:30:02;;;;;;;2.10;1.98;;;;;;;22.88;66.91;101114.75;5031036;28;20519;-88
2021/07/13 05:32:28;;;;;;;0.30;0.30;;;;;;;23.01;66.56;101116.63;5031513;28;20037;-88
2021/07/13 05:34:55;;;;;;;0.45;0.45;;;;;;;23.01;66.50;101113.91;5031597;28;20028;-87
2021/07/13 05:37:21;;;;;;;1.15;1.15;;;;;;;23.03;66.29;101112.84;5031591;28;20040;-87
2021/07/13 05:39:47;;;;;;;14.45;2.17;;;;;;;22.91;66.60;101109.13;5031629;28;20033;-87
2021/07/13 05:42:14;;;;;;;0.60;0.60;;;;;;;22.99;66.20;101105.03;5031757;28;20476;-87
2021/07/13 05:44:40;;;;;;;0.35;0.35;;;;;;;23.04;66.08;101105.59;5032451;28;20494;-88
2021/07/13 05:47:06;;;;;;;2.00;1.85;;;;;;;22.87;66.28;101096.81;5031437;28;21860;-89
2021/07/13 05:49:35;;;;;;;1.40;1.30;;;;;;;23.07;66.00;101100.00;5031557;28;20037;-90
2021/07/13 05:52:01;;;;;;;0.30;0.30;;;;;;;23.13;65.92;101104.97;5032096;28;20365;-89
2021/07/13 05:54:27;;;;;;;0.82;0.82;;;;;;;23.12;65.83;101105.09;5032199;28;20075;-87
2021/07/13 05:56:54;;;;;;;0.98;0.98;;;;;;;23.06;65.83;101107.22;5031911;28;20495;-89
2021/07/13 05:59:20;;;;;;;1.17;1.10;;;;;;;23.11;65.68;101109.59;5032127;28;20099;-90
2021/07/13 06:01:46;;;;;;;0.85;0.85;;;;;;;23.12;65.57;101116.75;5032418;28;20415;-90
2021/07/13 06:04:12;;;;;;;2.15;2.05;;;;;;;23.10;65.39;101119.56;5018739;28;20029;-89
2021/07/13 06:06:39;;;;;;;0.98;0.98;;;;;;;23.19;65.44;101118.09;5032106;28;20033;-89
2021/07/13 06:09:05;;;;;;;0.25;0.25;;;;;;;23.22;65.32;101111.59;5032288;28;20068;-89
2021/07/13 06:11:31;;;;;;;0.70;0.70;;;;;;;23.18;65.30;101121.75;5032054;28;20396;-89
2021/07/13 06:13:57;;;;;;;0.20;0.20;;;;;;;23.24;65.34;101123.16;5031155;28;20084;-89
2021/07/13 06:16:23;;;;;;;1.08;1.00;;;;;;;23.25;65.42;101130.31;5034705;28;20030;-88
2021/07/13 06:18:49;;;;;;;0.38;0.38;;;;;;;23.27;65.32;101131.94;5034146;28;20028;-89
2021/07/13 06:21:16;;;;;;;0.57;0.57;;;;;;;23.33;65.24;101129.75;5035225;28;20416;-89
2021/07/13 06:23:42;;;;;;;1.50;1.48;;;;;;;23.18;65.52;101127.16;5035087;28;20026;-88
2021/07/13 06:26:08;;;;;;;0.73;0.73;;;;;;;23.34;65.19;101120.69;5035155;28;20025;-88
2021/07/13 06:28:34;;;;;;;0.93;0.93;;;;;;;23.34;65.11;101120.69;5034935;28;20397;-89
2021/07/13 06:31:01;;;;;;;0.90;0.90;;;;;;;23.35;65.18;101122.41;5034245;28;20465;-89
2021/07/13 06:33:27;;;;;;;0.47;0.47;;;;;;;23.26;65.02;101124.81;5033166;28;20037;-89
2021/07/13 06:35:53;;;;;;;1.77;1.55;;;;;;;23.27;64.96;101120.25;5034261;28;20096;-90
2021/07/13 06:38:19;;;;;;;2.05;1.95;;;;;;;23.17;65.31;101133.53;5034639;28;20044;-88
2021/07/13 06:40:46;;;;;;;1.10;1.10;;;;;;;23.25;65.26;101131.19;5034913;28;20029;-90
2021/07/13 06:43:12;;;;;;;1.00;1.00;;;;;;;23.28;64.99;101132.81;5034460;28;20386;-91
2021/07/13 06:45:38;;;;;;;1.77;1.45;;;;;;;23.38;64.69;101133.91;5033964;28;20026;-83
2021/07/13 06:48:05;;;;;;;0.30;0.30;;;;;;;23.42;64.81;101131.84;5034880;28;20044;-88
2021/07/13 06:50:31;;;;;;;1.23;1.23;;;;;;;23.25;64.74;101136.59;5035235;28;20029;-88
2021/07/13 06:52:57;;;;;;;1.85;1.30;;;;;;;23.32;64.48;101138.88;5034009;28;20060;-90
2021/07/13 06:55:23;;;;;;;4.05;2.50;;;;;;;23.25;64.60;101144.72;5034790;28;20120;-89
2021/07/13 06:57:50;;;;;;;1.27;1.27;;;;;;;23.38;64.54;101146.56;5034599;28;20021;-89
2021/07/13 07:00:43;;;;;;;0.88;0.88;;;;;;;23.34;64.76;101143.19;5034202;28;20577;-90
2021/07/13 07:03:09;;;;;;;1.55;1.02;;;;;;;23.30;64.57;101146.22;5031785;28;20069;-90
2021/07/13 07:05:36;;;;;;;0.90;0.90;;;;;;;23.30;64.22;101148.91;5034403;28;20017;-91
2021/07/13 07:08:03;;;;;;;0.80;0.80;;;;;;;23.39;64.60;101135.63;5025236;28;20026;-89
2021/07/13 07:10:30;;;;;;;0.85;0.85;;;;;;;23.40;64.22;101133.78;5032903;28;20029;-88
2021/07/13 07:12:56;;;;;;;1.48;1.38;;;;;;;23.39;64.47;101140.16;5033121;28;20026;-89
2021/07/13 07:15:22;;;;;;;0.77;0.77;;;;;;;23.53;64.17;101131.94;5033081;28;20104;-89
2021/07/13 07:17:53;;;;;;;1.08;1.08;;;;;;;23.56;64.24;101141.69;5033983;28;20030;-89
2021/07/13 07:20:23;;;;;;;1.65;1.55;;;;;;;23.56;63.89;101134.47;5032328;28;20036;-90
2021/07/13 07:22:49;;;;;;;0.80;0.80;;;;;;;23.55;63.85;101139.94;5033470;28;20435;-90
2021/07/13 07:25:16;;;;;;;2.83;2.05;;;;;;;23.73;63.86;101151.31;5033387;28;20136;-90
2021/07/13 07:27:43;;;;;;;1.70;1.60;;;;;;;23.60;63.73;101151.31;5032518;28;20029;-90
2021/07/13 07:30:11;;;;;;;2.03;1.40;;;;;;;23.67;63.55;101138.25;5031732;28;20033;-90
2021/07/13 07:32:40;;;;;;;0.55;0.55;;;;;;;23.70;63.11;101149.72;5032800;28;20021;-90
2021/07/13 07:35:08;;;;;;;1.95;1.17;;;;;;;23.83;63.31;101155.09;5033479;28;20045;-89
2021/07/13 07:37:35;;;;;;;0.45;0.45;;;;;;;23.82;63.35;101156.06;5031641;28;20476;-90
2021/07/13 07:40:19;;;;;;;0.70;0.70;;;;;;;23.98;63.12;101158.59;5031814;28;20116;-92
2021/07/13 07:42:49;;;;;;;1.38;1.27;;;;;;;24.00;62.93;101156.66;5029969;28;20033;-90
2021/07/13 07:45:18;;;;;;;1.63;0.65;;;;;;;23.90;63.21;101151.00;5036349;28;20119;-93
2021/07/13 07:47:48;;;;;;;4.22;2.05;;;;;;;24.04;62.50;101158.13;5031974;28;20030;-89
2021/07/13 07:50:16;;;;;;;1.13;1.13;;;;;;;24.07;62.58;101154.34;5034480;28;20030;-90
2021/07/13 07:52:42;;;;;;;0.43;0.43;;;;;;;24.10;62.23;101156.84;5032851;28;20056;-89
2021/07/13 07:55:13;;;;;;;1.88;1.55;;;;;;;24.17;62.00;101162.66;5038286;28;20030;-87
2021/07/13 07:57:39;;;;;;;0.20;0.20;;;;;;;24.07;61.37;101151.63;5037230;28;20049;-90
2021/07/13 08:00:08;;;;;;;2.90;1.75;;;;;;;24.18;61.88;101159.84;5039265;28;20080;-89
2021/07/13 08:02:35;;;;;;;2.92;0.52;;;;;;;24.25;61.71;101164.81;5031967;28;20427;-90
2021/07/13 08:05:02;;;;;;;1.83;0.80;;;;;;;24.15;61.48;101160.09;5035812;28;20088;-89
2021/07/13 08:07:30;;;;;;;0.68;0.50;;;;;;;24.10;61.57;101155.97;5032276;28;20032;-91
2021/07/13 08:09:57;;;;;;;1.02;1.02;;;;;;;24.19;61.96;101156.16;5033131;28;20041;-95
2021/07/13 08:12:24;;;;;;;0.95;0.88;;;;;;;24.16;61.63;101152.81;5034792;28;20043;-89
2021/07/13 08:14:51;;;;;;;1.40;1.30;;;;;;;24.09;61.61;101160.53;5019691;28;20084;-89
2021/07/13 08:17:21;;;;;;;1.23;1.23;;;;;;;24.17;61.93;101158.09;5032287;28;20052;-89
2021/07/13 08:40:43;;;;;;;1.40;0.88;;;;;;;24.34;60.58;101164.16;5087839;23;20058;-90
2021/07/13 08:43:32;;;;;;;0.20;0.20;;;;;;;24.48;60.46;101164.00;5012467;28;20040;-92
2021/07/13 08:46:01;;;;;;;12.70;1.55;;;;;;;24.29;60.84;101166.31;5012809;28;20030;-86
2021/07/13 08:48:27;;;;;;;0.68;0.68;;;;;;;24.26;60.46;101171.97;5010709;28;20045;-86
2021/07/13 08:50:57;;;;;;;3.58;2.60;;;;;;;24.28;60.95;101167.31;5012120;28;20420;-87
2021/07/13 08:53:24;;;;;;;1.88;1.73;;;;;;;24.20;60.96;101168.72;5012173;28;20037;-87
2021/07/13 08:55:54;;;;;;;5.88;0.90;;;;;;;24.19;61.04;101167.00;5012471;28;20104;-87
2021/07/13 08:58:22;;;;;;;1.85;1.42;;;;;;;24.26;61.04;101171.97;5012565;28;20551;-87
2021/07/13 09:00:48;;;;;;;1.58;1.48;;;;;;;24.15;61.35;101165.50;4998819;28;20507;-87
2021/07/13 09:03:19;;;;;;;0.50;0.50;;;;;;;24.18;61.02;101165.25;5012439;28;20062;-87
2021/07/13 09:05:48;;;;;;;4.80;2.15;;;;;;;24.22;60.93;101164.09;5012045;28;20376;-87
2021/07/13 09:08:34;;;;;;;0.98;0.98;;;;;;;24.35;60.51;101155.03;5012330;28;20372;-87
2021/07/13 09:13:47;;;;;;;1.30;1.20;;;;;;;24.32;60.43;101157.97;5074984;27;20411;-86
2021/07/13 09:16:16;;;;;;;1.27;1.17;;;;;;;24.35;60.69;101171.28;5062078;28;20072;-86
2021/07/13 09:18:45;;;;;;;0.93;0.93;;;;;;;24.41;60.52;101168.13;5049173;28;20071;-86
2021/07/13 09:21:16;;;;;;;1.38;1.15;;;;;;;24.51;60.72;101171.03;5049316;28;20108;-87
2021/07/13 09:24:21;;;;;;;1.55;1.05;;;;;;;24.56;60.55;101168.81;5049044;28;20025;-88
2021/07/13 09:35:03;;;;;;;0.20;0.20;;;;;;;24.66;60.35;101169.03;5068831;28;20395;-87
2021/07/13 09:37:31;;;;;;;20.60;2.15;;;;;;;24.65;60.25;101170.91;5069110;28;20037;-85
2021/07/13 09:48:11;;;;;;;0.88;0.70;;;;;;;25.01;59.21;101169.09;5085496;27;20428;-87
2021/07/13 09:50:42;;;;;;;0.50;0.40;;;;;;;25.05;59.75;101167.03;5068973;28;20375;-87
2021/07/13 09:53:13;;;;;;;0.98;0.98;;;;;;;25.01;59.21;101179.94;5068619;28;20044;-87
2021/07/13 09:55:39;;;;;;;0.93;0.93;;;;;;;25.06;59.23;101171.47;5068838;28;20029;-87
2021/07/13 10:00:57;;;;;;;0.77;0.77;;;;;;;24.97;59.27;101170.34;5082626;27;20432;-86
2021/07/13 10:03:24;;;;;;;0.75;0.75;;;;;;;24.85;58.69;101168.56;5068879;28;20033;-87
2021/07/13 10:05:52;;;;;;;0.88;0.88;;;;;;;24.97;59.29;101172.16;5068528;28;20078;-87
2021/07/13 10:08:20;;;;;;;4.03;1.10;;;;;;;25.06;59.25;101171.47;5055694;28;20075;-87
2021/07/13 10:10:48;;;;;;;2.47;2.28;;;;;;;25.02;58.82;101178.09;5048626;28;20033;-88
2021/07/13 10:13:15;;;;;;;1.65;1.05;;;;;;;25.13;58.66;101178.13;5048867;28;20087;-88
2021/07/13 10:15:44;;;;;;;0.25;0.25;;;;;;;25.15;58.41;101170.75;5048845;28;20029;-87
2021/07/13 10:18:10;;;;;;;4.15;1.52;;;;;;;25.14;58.50;101173.59;5048256;28;20091;-86
2021/07/13 10:20:38;;;;;;;1.80;1.70;;;;;;;25.22;58.33;101179.28;5047956;28;20060;-88
2021/07/13 10:23:09;;;;;;;0.52;0.52;;;;;;;25.21;57.63;101174.84;5047395;28;20107;-88
2021/07/13 10:25:40;;;;;;;3.20;2.38;;;;;;;25.39;58.14;101175.31;5047562;28;20028;-87
2021/07/13 10:28:07;;;;;;;0.50;0.50;;;;;;;25.35;57.48;101182.78;5047488;28;20040;-89
2021/07/13 10:30:35;;;;;;;0.57;0.57;;;;;;;25.33;57.52;101189.31;5047766;28;20017;-87
2021/07/13 10:33:01;;;;;;;0.73;0.73;;;;;;;25.33;57.60;101190.19;5047639;28;20032;-87
2021/07/13 10:35:30;;;;;;;0.68;0.68;;;;;;;25.30;57.27;101190.41;5048584;28;20388;-87
2021/07/13 10:40:43;;;;;;;2.35;1.02;;;;;;;25.32;57.38;101193.88;5080436;27;20857;-87
2021/07/13 10:43:27;;;;;;;0.98;0.98;;;;;;;25.31;57.73;101196.69;5067518;28;20115;-88
2021/07/13 10:46:11;;;;;;;6.22;1.65;;;;;;;25.22;57.25;101202.81;5062157;28;20021;-88
2021/07/13 10:48:38;;;;;;;1.10;1.10;;;;;;;25.15;57.76;101200.59;5058560;28;20041;-89
2021/07/13 10:51:07;;;;;;;1.20;1.15;;;;;;;25.07;57.93;101205.72;5053380;28;20057;-88
2021/07/13 10:53:38;;;;;;;2.38;1.25;;;;;;;25.01;58.37;101212.47;5050378;28;20025;-88
2021/07/13 10:56:11;;;;;;;1.88;1.40;;;;;;;25.07;57.37;101211.13;5055408;28;20025;-87
2021/07/13 10:58:44;;;;;;;1.35;1.25;;;;;;;25.05;58.04;101210.41;5050369;28;20061;-88
2021/07/13 11:01:14;;;;;;;2.08;1.83;;;;;;;25.07;57.89;101210.28;5050797;28;20053;-89
2021/07/13 11:06:44;;;;;;;0.80;0.40;;;;;;;25.09;57.92;101222.75;5081467;28;20395;-85
2021/07/13 11:09:28;;;;;;;1.50;1.38;;;;;;;25.17;57.70;101211.31;5048616;28;20044;-86
2021/07/13 11:12:03;;;;;;;1.70;1.60;;;;;;;25.23;58.09;101212.69;5049221;28;20080;-85
2021/07/13 11:14:30;;;;;;;1.23;1.20;;;;;;;25.32;57.61;101217.41;5049233;28;20017;-85
2021/07/13 11:16:56;;;;;;;0.50;0.50;;;;;;;25.30;57.36;101213.97;5046623;28;20087;-84
2021/07/13 11:19:22;;;;;;;2.47;1.70;;;;;;;25.34;57.25;101215.44;5047623;28;20041;-86
2021/07/13 11:21:50;;;;;;;2.38;1.05;;;;;;;25.40;57.07;101214.16;5047525;28;20068;-86
2021/07/13 11:24:20;;;;;;;0.55;0.55;;;;;;;25.25;56.82;101213.47;5047561;28;20025;-87
2021/07/13 11:26:51;;;;;;;7.18;2.00;;;;;;;25.36;57.15;101210.78;5047879;28;20037;-86
2021/07/13 11:31:59;;;;;;;0.20;0.20;;;;;;;25.19;57.19;101218.34;5078384;28;20441;-84
2021/07/13 11:34:33;;;;;;;0.90;0.90;;;;;;;25.24;57.27;101222.56;5052220;28;20033;-84
2021/07/13 11:36:59;;;;;;;0.25;0.25;;;;;;;25.24;57.57;101218.00;5049663;28;20032;-85
2021/07/13 11:39:29;;;;;;;4.43;1.55;;;;;;;25.16;57.37;101207.75;5042601;28;20037;-86
2021/07/13 11:41:59;;;;;;;0.77;0.77;;;;;;;25.19;57.20;101214.78;5043261;28;20056;-86
2021/07/13 11:44:26;;;;;;;0.40;0.40;;;;;;;25.30;57.49;101214.81;5036590;28;20485;-85
2021/07/13 11:46:54;;;;;;;0.85;0.63;;;;;;;25.32;56.21;101215.56;5035887;28;20029;-87
2021/07/13 11:49:23;;;;;;;1.02;1.02;;;;;;;25.31;56.54;101221.09;5038263;28;20022;-90
2021/07/13 11:54:37;;;;;;;1.23;1.23;;;;;;;25.42;57.08;101221.19;5163835;27;20411;-86
2021/07/13 11:57:06;;;;;;;0.55;0.55;;;;;;;25.48;57.27;101220.72;5161447;27;20477;-90
2021/07/13 11:59:34;;;;;;;0.60;0.60;;;;;;;25.60;56.72;101228.88;5144641;27;20118;-86
2021/07/13 12:02:03;;;;;;;0.55;0.55;;;;;;;25.66;56.57;101225.69;5142575;27;20058;-85
2021/07/13 12:04:35;;;;;;;1.05;0.88;;;;;;;25.70;56.29;101235.31;5130623;27;20065;-85
2021/07/13 12:07:02;;;;;;;1.52;1.45;;;;;;;25.62;55.87;101241.34;5142341;27;20039;-85
2021/07/13 12:09:32;;;;;;;0.85;0.75;;;;;;;25.49;55.31;101230.56;5142146;27;20028;-86
2021/07/13 12:12:09;;;;;;;2.63;1.27;;;;;;;25.46;55.75;101230.81;5142545;27;20027;-86
2021/07/13 12:14:36;;;;;;;1.13;0.85;;;;;;;25.46;56.06;101228.09;5140600;27;20121;-85
2021/07/13 12:17:04;;;;;;;1.75;1.23;;;;;;;25.35;56.34;101233.47;5140365;27;20034;-85
2021/07/13 12:19:31;;;;;;;0.93;0.93;;;;;;;25.19;56.57;101229.19;5141699;27;20067;-85
2021/07/13 12:22:02;;;;;;;0.88;0.88;;;;;;;25.29;56.15;101236.63;5145017;27;20027;-87
2021/07/13 12:24:34;;;;;;;2.75;1.88;;;;;;;25.34;56.13;101234.44;5140548;27;20043;-86
2021/07/13 12:27:02;;;;;;;;;;;;;;;25.43;56.43;101231.03;5144085;27;20046;-87
2021/07/13 12:29:44;;;;;;;0.20;0.20;;;;;;;25.19;56.12;101231.03;5144978;27;19951;-86
2021/07/13 12:32:18;;;;;;;0.65;0.65;;;;;;;25.18;56.53;101227.47;5137354;27;20072;-86
2021/07/13 12:34:45;;;;;;;2.40;1.45;;;;;;;25.15;56.59;101234.97;5146793;27;20054;-86